Time;durP1;ratioP1;P1;durP2;ratioP2;P2;SDS_P1;SDS_P2;PMS_P1;PMS_P2;Temp;Humidity;BMP_temperature;BMP_pressure;BME280_temperature;BME280_humidity;BME280_pressure;Samples;Min_cycle;Max_cycle;Signal;HPM_P1;HPM_P2
2022/05/14 00:05:16;;;;;;;;;;;;;;;14.81;54.83;100314.06;1075747;54;20869;31
2022/05/14 02:00:24;;;;;;;;;;;;;;;13.15;60.55;100306.16;1074705;54;19946;31
2022/05/14 02:06:37;;;;;;;;;;;;;;;12.60;62.16;100308.00;1075088;54;19946;31
2022/05/14 02:07:44;;;;;;;;;;;;;;;12.61;62.10;100308.84;1074996;54;19958;31
2022/05/14 02:24:18;;;;;;;;;;;;;;;12.24;63.91;100307.94;1088422;54;19950;-85
2022/05/14 02:25:20;;;;;;;;;;;;;;;12.25;63.85;100311.44;1088405;54;20744;-84
2022/05/14 02:26:23;;;;;;;;;;;;;;;12.19;64.10;100310.22;1088463;54;19934;-80
2022/05/14 02:27:25;;;;;;;;;;;;;;;12.17;64.45;100307.69;1088277;54;19998;-82
2022/05/14 02:28:28;;;;;;;;;;;;;;;12.16;64.22;100311.34;1097587;39;20577;-83
2022/05/14 02:29:50;;;;;;;;;;;;;;;12.16;64.37;100310.53;1088436;54;19934;-84
2022/05/14 02:30:54;;;;;;;;;;;;;;;12.15;64.61;100306.16;1088417;54;19934;-82
2022/05/14 02:31:55;;;;;;;;;;;;;;;12.18;64.57;100308.56;1088342;54;21025;-83
2022/05/14 02:32:58;;;;;;;;;;;;;;;12.17;64.68;100309.53;1096476;39;20630;-82
2022/05/14 02:34:02;;;;;;;;;;;;;;;12.19;64.28;100309.38;1089385;39;20553;-84
2022/05/14 02:35:04;;;;;;;;;;;;;;;12.11;64.68;100312.78;1088187;54;19935;-85
2022/05/14 02:36:10;;;;;;;;;;;;;;;12.07;64.91;100306.06;1088357;54;19927;-83
2022/05/14 02:37:11;;;;;;;;;;;;;;;12.02;65.18;100307.34;1088326;54;19923;-84
2022/05/14 02:38:15;;;;;;;;;;;;;;;12.04;65.38;100309.88;1088077;54;19943;-85
2022/05/14 02:39:19;;;;;;;;;;;;;;;12.06;65.40;100309.72;1088305;54;19949;-84
2022/05/14 02:40:23;;;;;;;;;;;;;;;12.04;65.26;100314.38;1088542;46;19927;-82
2022/05/14 02:41:24;;;;;;;;;;;;;;;12.00;65.20;100313.84;1088831;39;20605;-83
2022/05/14 02:42:28;;;;;;;;;;;;;;;11.92;65.69;100314.53;1088431;54;19958;-84
2022/05/14 02:43:29;;;;;;;;;;;;;;;11.86;65.85;100312.44;1088461;54;19942;-84
2022/05/14 02:44:33;;;;;;;;;;;;;;;11.83;66.14;100316.28;1088443;54;19955;-84
2022/05/14 02:45:36;;;;;;;;;;;;;;;11.83;65.96;100316.28;1088469;54;19927;-85
2022/05/14 02:46:37;;;;;;;;;;;;;;;11.81;66.32;100314.72;1088451;54;19927;-83
2022/05/14 02:47:41;;;;;;;;;;;;;;;11.79;66.09;100312.19;1088395;54;19943;-84
2022/05/14 02:48:42;;;;;;;;;;;;;;;11.74;66.27;100313.59;1088909;39;20611;-83
2022/05/14 02:49:46;;;;;;;;;;;;;;;11.68;66.29;100313.22;1088431;54;19927;-84
2022/05/14 02:50:50;;;;;;;;;;;;;;;11.67;66.26;100322.25;1090577;46;19935;-85
2022/05/14 02:51:51;;;;;;;;;;;;;;;11.71;66.41;100322.78;1088401;54;19949;-84
2022/05/14 02:52:55;;;;;;;;;;;;;;;11.70;66.07;100319.28;1088394;54;19927;-85
2022/05/14 02:53:56;;;;;;;;;;;;;;;11.75;66.40;100328.69;1088224;54;19965;-84
2022/05/14 02:55:03;;;;;;;;;;;;;;;11.80;65.72;100321.91;1088032;54;19942;-82
2022/05/14 02:56:07;;;;;;;;;;;;;;;11.74;66.06;100324.31;1088365;54;19949;-85
2022/05/14 02:57:08;;;;;;;;;;;;;;;11.71;66.29;100323.63;1088388;54;19950;-84
2022/05/14 02:58:12;;;;;;;;;;;;;;;11.68;66.21;100321.25;1088399;54;19954;-83
2022/05/14 02:59:13;;;;;;;;;;;;;;;11.57;66.65;100329.44;1088391;54;19995;-83
2022/05/14 03:00:19;;;;;;;;;;;;;;;11.52;66.94;100323.69;1089364;39;20513;-82
2022/05/14 03:01:20;;;;;;;;;;;;;;;11.50;66.99;100323.00;1088330;54;19957;-83
2022/05/14 03:02:24;;;;;;;;;;;;;;;11.50;67.18;100321.13;1088269;54;19949;-83
2022/05/14 03:03:26;;;;;;;;;;;;;;;11.46;67.48;100321.56;1088324;54;19949;-82
2022/05/14 03:04:31;;;;;;;;;;;;;;;11.38;67.43;100323.16;1089248;39;20542;-83
2022/05/14 03:05:32;;;;;;;;;;;;;;;11.39;67.49;100322.16;1088358;54;19933;-83
2022/05/14 03:06:36;;;;;;;;;;;;;;;11.46;67.15;100324.25;1088361;54;19943;-81
2022/05/14 03:07:40;;;;;;;;;;;;;;;11.45;67.28;100322.56;1088317;54;19950;-83
2022/05/14 03:08:41;;;;;;;;;;;;;;;11.50;66.82;100328.34;1088363;54;19950;-85
2022/05/14 03:09:45;;;;;;;;;;;;;;;11.51;66.87;100327.34;1088363;54;19990;-84
2022/05/14 03:10:49;;;;;;;;;;;;;;;11.60;66.42;100329.16;1088115;54;19942;-84
2022/05/14 03:11:53;;;;;;;;;;;;;;;11.53;66.34;100331.56;1088057;54;19966;-84
2022/05/14 03:12:57;;;;;;;;;;;;;;;11.52;66.76;100329.88;1091274;39;20569;-84
2022/05/14 03:13:58;;;;;;;;;;;;;;;11.44;66.91;100337.78;1088397;54;19966;-84
2022/05/14 03:15:03;;;;;;;;;;;;;;;11.44;67.09;100327.09;1088341;54;19965;-85
2022/05/14 03:16:04;;;;;;;;;;;;;;;11.41;67.20;100331.88;1088402;54;19943;-86
2022/05/14 03:17:08;;;;;;;;;;;;;;;11.35;67.76;100327.94;1088292;54;19949;-84
2022/05/14 03:18:09;;;;;;;;;;;;;;;11.38;67.54;100333.03;1088383;54;19966;-83
2022/05/14 03:19:13;;;;;;;;;;;;;;;11.41;67.42;100339.91;1088356;54;19957;-84
2022/05/14 03:20:15;;;;;;;;;;;;;;;11.49;67.25;100340.03;1088368;54;19927;-83
2022/05/14 03:21:18;;;;;;;;;;;;;;;11.40;67.03;100333.69;1088300;54;19939;-84
2022/05/14 03:22:20;;;;;;;;;;;;;;;11.49;66.95;100338.19;1088276;54;19942;-84
2022/05/14 03:23:23;;;;;;;;;;;;;;;11.56;66.61;100330.44;1088212;54;19986;-83
2022/05/14 03:24:27;;;;;;;;;;;;;;;11.39;67.13;100335.53;1088320;54;19942;-84
2022/05/14 03:25:28;;;;;;;;;;;;;;;11.36;67.23;100335.81;1088315;54;19942;-83
2022/05/14 03:26:35;;;;;;;;;;;;;;;11.37;67.30;100344.72;1088333;54;19943;-83
2022/05/14 03:27:36;;;;;;;;;;;;;;;11.33;67.59;100333.44;1087967;54;19943;-85
2022/05/14 03:28:40;;;;;;;;;;;;;;;11.33;67.69;100333.44;1087919;54;19939;-85
2022/05/14 03:29:41;;;;;;;;;;;;;;;11.34;67.54;100332.44;1087881;54;19938;-86
2022/05/14 03:30:46;;;;;;;;;;;;;;;11.33;67.69;100336.13;1087955;54;20015;-83
2022/05/14 03:31:47;;;;;;;;;;;;;;;11.30;67.64;100336.41;1087863;54;19946;-84
2022/05/14 03:32:51;;;;;;;;;;;;;;;11.23;67.88;100332.59;1089846;39;20577;-84
2022/05/14 03:33:52;;;;;;;;;;;;;;;11.24;67.94;100336.97;1087955;54;19943;-84
2022/05/14 03:34:58;;;;;;;;;;;;;;;11.19;68.26;100334.69;1087909;54;20686;-83
2022/05/14 03:35:59;;;;;;;;;;;;;;;11.16;68.36;100334.13;1087935;54;19942;-84
2022/05/14 03:37:03;;;;;;;;;;;;;;;11.21;68.26;100331.91;1088148;54;19931;-83
2022/05/14 03:38:04;;;;;;;;;;;;;;;11.15;68.42;100337.78;1088288;54;19950;-82
2022/05/14 03:39:09;;;;;;;;;;;;;;;11.15;68.42;100343.16;1088327;54;19931;-83
2022/05/14 03:40:11;;;;;;;;;;;;;;;11.14;68.61;100341.50;1088671;54;19950;-84
2022/05/14 03:41:16;;;;;;;;;;;;;;;11.08;68.23;100338.38;1088523;54;20174;-83
2022/05/14 03:42:23;;;;;;;;;;;;;;;11.13;68.31;100340.63;1088563;54;19950;-85
2022/05/14 03:43:24;;;;;;;;;;;;;;;11.14;68.41;100336.13;1088689;54;19930;-83
2022/05/14 03:44:27;;;;;;;;;;;;;;;11.12;68.29;100346.13;1088635;54;19927;-83
2022/05/14 03:45:29;;;;;;;;;;;;;;;11.16;68.13;100339.50;1088630;54;19950;-85
2022/05/14 03:46:33;;;;;;;;;;;;;;;11.16;68.10;100335.00;1088560;54;19946;-83
2022/05/14 03:47:34;;;;;;;;;;;;;;;11.18;67.91;100337.53;1088144;54;19939;-81
2022/05/14 03:48:38;;;;;;;;;;;;;;;11.27;67.79;100338.53;1088462;54;19942;-83
2022/05/14 03:49:40;;;;;;;;;;;;;;;11.22;68.18;100339.78;1088645;54;19938;-83
2022/05/14 03:50:43;;;;;;;;;;;;;;;11.24;68.08;100337.81;1091649;39;20428;-84
2022/05/14 03:51:45;;;;;;;;;;;;;;;11.26;67.93;100351.03;1088344;54;19966;-85
2022/05/14 03:52:48;;;;;;;;;;;;;;;11.28;67.53;100348.25;1088626;46;19943;-85
2022/05/14 03:53:50;;;;;;;;;;;;;;;11.26;67.69;100343.00;1088619;54;19935;-83
2022/05/14 03:54:53;;;;;;;;;;;;;;;11.28;67.83;100342.88;1090619;46;19966;-83
2022/05/14 03:55:55;;;;;;;;;;;;;;;11.24;67.92;100345.84;1088664;54;19942;-83
2022/05/14 03:56:58;;;;;;;;;;;;;;;11.18;68.21;100338.38;1088611;54;20646;-82
2022/05/14 03:58:03;;;;;;;;;;;;;;;11.19;68.35;100337.38;1088566;54;19927;-83
2022/05/14 03:59:06;;;;;;;;;;;;;;;11.16;68.41;100348.38;1088639;54;19938;-84
2022/05/14 04:00:08;;;;;;;;;;;;;;;11.20;68.23;100333.72;1088630;54;19950;-85
2022/05/14 04:01:12;;;;;;;;;;;;;;;11.19;68.34;100340.03;1088646;54;19943;-85
2022/05/14 04:02:13;;;;;;;;;;;;;;;11.24;68.21;100345.00;1091736;39;20609;-85
2022/05/14 04:03:17;;;;;;;;;;;;;;;11.21;67.87;100342.59;1088392;54;19949;-84
2022/05/14 04:04:19;;;;;;;;;;;;;;;11.23;67.80;100341.47;1088581;54;19934;-83
2022/05/14 04:05:23;;;;;;;;;;;;;;;11.20;67.99;100340.91;1088622;54;19927;-83
2022/05/14 04:06:24;;;;;;;;;;;;;;;11.19;67.98;100333.88;1088646;54;20603;-87
2022/05/14 04:07:28;;;;;;;;;;;;;;;11.19;68.04;100344.56;1095664;39;20507;-85
2022/05/14 04:08:29;;;;;;;;;;;;;;;11.17;68.41;100347.41;1088245;54;19942;-83
2022/05/14 04:09:33;;;;;;;;;;;;;;;11.22;67.92;100341.63;1088388;54;19943;-84
2022/05/14 04:10:34;;;;;;;;;;;;;;;11.25;68.05;100344.00;1088596;54;20619;-83
2022/05/14 04:11:38;;;;;;;;;;;;;;;11.26;67.88;100343.00;1091378;46;19955;-83
2022/05/14 04:12:40;;;;;;;;;;;;;;;11.30;67.78;100338.22;1091392;46;19970;-83
2022/05/14 04:13:46;;;;;;;;;;;;;;;11.37;67.53;100342.03;1088550;54;19935;-84
2022/05/14 04:14:47;;;;;;;;;;;;;;;11.31;67.75;100340.78;1088617;54;20632;-84
2022/05/14 04:15:51;;;;;;;;;;;;;;;11.28;67.92;100343.72;1088684;54;19922;-84
2022/05/14 04:16:52;;;;;;;;;;;;;;;11.29;67.82;100344.59;1088676;54;19934;-84
2022/05/14 04:17:56;;;;;;;;;;;;;;;11.31;67.88;100348.78;1088638;54;19950;-84
2022/05/14 04:18:57;;;;;;;;;;;;;;;11.31;67.83;100343.44;1096310;39;20546;-84
2022/05/14 04:20:01;;;;;;;;;;;;;;;11.37;67.44;100340.19;1088685;54;19927;-84
2022/05/14 04:21:02;;;;;;;;;;;;;;;11.32;67.79;100345.13;1088671;54;19934;-84
2022/05/14 04:22:07;;;;;;;;;;;;;;;11.35;67.46;100342.16;1088580;54;19943;-85
2022/05/14 04:23:08;;;;;;;;;;;;;;;11.43;67.13;100345.97;1094200;39;20609;-83
2022/05/14 04:24:12;;;;;;;;;;;;;;;11.48;67.15;100333.81;1088154;54;19942;-84
2022/05/14 04:25:13;;;;;;;;;;;;;;;11.46;67.12;100346.53;1088225;54;19942;-85
2022/05/14 04:26:17;;;;;;;;;;;;;;;11.41;67.35;100343.41;1090462;46;19943;-84
2022/05/14 04:27:19;;;;;;;;;;;;;;;11.38;67.24;100349.91;1088591;54;19950;-83
2022/05/14 04:28:23;;;;;;;;;;;;;;;11.41;67.12;100337.22;1088554;54;19989;-83
2022/05/14 04:29:27;;;;;;;;;;;;;;;11.38;67.32;100338.38;1088604;54;19947;-83
2022/05/14 04:30:30;;;;;;;;;;;;;;;11.35;67.40;100344.00;1091019;46;19942;-86
2022/05/14 04:31:32;;;;;;;;;;;;;;;11.37;67.43;100348.22;1092282;46;19946;-83
2022/05/14 04:32:36;;;;;;;;;;;;;;;11.39;67.29;100348.94;1088491;54;19954;-83
2022/05/14 04:33:40;;;;;;;;;;;;;;;11.44;66.93;100353.00;1088798;46;19975;-83
2022/05/14 04:34:41;;;;;;;;;;;;;;;11.41;67.15;100346.09;1088537;54;19927;-83
2022/05/14 04:35:45;;;;;;;;;;;;;;;11.46;66.83;100353.69;1088493;54;19942;-83
2022/05/14 04:36:47;;;;;;;;;;;;;;;11.48;67.27;100351.72;1088566;54;19926;-84
2022/05/14 04:37:50;;;;;;;;;;;;;;;11.49;67.04;100351.56;1088571;54;20854;-84
2022/05/14 04:38:51;;;;;;;;;;;;;;;11.45;67.23;100350.19;1088578;54;19966;-82
2022/05/14 04:39:55;;;;;;;;;;;;;;;11.51;66.76;100352.28;1088538;54;19938;-84
2022/05/14 04:40:56;;;;;;;;;;;;;;;11.59;66.46;100348.91;1088481;54;19930;-84
2022/05/14 04:42:01;;;;;;;;;;;;;;;11.62;66.50;100351.25;1091232;39;20982;-84
2022/05/14 04:43:04;;;;;;;;;;;;;;;11.66;66.80;100351.84;1088403;54;19954;-84
2022/05/14 04:44:08;;;;;;;;;;;;;;;11.78;65.95;100348.00;1088550;54;19934;-83
2022/05/14 04:45:12;;;;;;;;;;;;;;;11.88;65.78;100356.00;1088649;54;19935;-83
2022/05/14 04:46:16;;;;;;;;;;;;;;;11.95;65.49;100350.94;1088628;54;19935;-85
2022/05/14 04:47:17;;;;;;;;;;;;;;;12.00;65.39;100348.66;1088556;54;19938;-84
2022/05/14 04:48:21;;;;;;;;;;;;;;;12.08;65.08;100346.09;1088503;54;19982;-84
2022/05/14 04:49:22;;;;;;;;;;;;;;;12.19;64.92;100352.25;1088575;54;20535;-83
2022/05/14 04:50:26;;;;;;;;;;;;;;;12.25;64.72;100351.66;1088544;54;19927;-85
2022/05/14 04:51:27;;;;;;;;;;;;;;;12.31;64.59;100362.63;1088475;54;19945;-82
2022/05/14 04:52:31;;;;;;;;;;;;;;;12.31;64.81;100351.09;1088533;54;19942;-84
2022/05/14 04:53:32;;;;;;;;;;;;;;;12.35;64.79;100357.00;1088618;54;19939;-83
2022/05/14 04:54:36;;;;;;;;;;;;;;;12.41;64.60;100356.38;1088593;54;19949;-85
2022/05/14 04:55:37;;;;;;;;;;;;;;;12.44;64.86;100362.28;1091099;46;19950;-84
2022/05/14 04:56:41;;;;;;;;;;;;;;;12.48;65.02;100365.50;1088540;54;19939;-84
2022/05/14 04:57:43;;;;;;;;;;;;;;;12.46;65.52;100363.00;1088368;54;20010;-85
2022/05/14 04:58:47;;;;;;;;;;;;;;;12.53;65.11;100363.25;1088176;54;19991;-85
2022/05/14 04:59:48;;;;;;;;;;;;;;;12.58;64.78;100362.78;1088470;54;19949;-83
2022/05/14 05:00:54;;;;;;;;;;;;;;;12.60;64.78;100363.50;1088525;54;19942;-85
2022/05/14 05:04:15;;;;;;;;;;;;;;;12.63;64.78;100368.53;1088635;54;19949;-81
2022/05/14 05:06:37;;;;;;;;;;;;;;;12.53;65.65;100379.31;1088622;54;19962;-80
2022/05/14 05:08:12;;;;;;;;;;;;;;;12.56;65.48;100368.31;1088598;54;19943;-80
2022/05/14 05:09:21;;;;;;;;;;;;;;;12.57;65.48;100371.81;1088653;54;19959;-81
2022/05/14 05:10:25;;;;;;;;;;;;;;;12.61;65.40;100375.91;1092084;39;20572;-79
2022/05/14 05:11:29;;;;;;;;;;;;;;;12.67;65.04;100383.34;1088502;54;19951;-80
2022/05/14 05:12:33;;;;;;;;;;;;;;;12.69;65.24;100373.31;1088480;54;20002;-79
2022/05/14 05:16:50;;;;;;;;;;;;;;;12.84;64.30;100365.59;1089754;46;19965;-79
2022/05/14 05:17:52;;;;;;;;;;;;;;;12.78;64.26;100369.72;1088585;39;20676;-80
2022/05/14 05:18:56;;;;;;;;;;;;;;;12.71;64.85;100373.16;1096630;46;19946;-80
2022/05/14 05:20:05;;;;;;;;;;;;;;;12.75;64.79;100374.56;1092690;46;20332;-79
2022/05/14 05:21:09;;;;;;;;;;;;;;;12.79;64.45;100373.25;1088384;54;19938;-81
2022/05/14 05:22:10;;;;;;;;;;;;;;;12.81;64.50;100368.56;1089244;46;19951;-79
2022/05/14 05:23:15;;;;;;;;;;;;;;;12.86;64.13;100371.63;1091075;46;19986;-80
2022/05/14 05:24:17;;;;;;;;;;;;;;;12.87;64.13;100367.94;1089543;46;19999;-80
2022/05/14 05:25:21;;;;;;;;;;;;;;;12.91;64.16;100373.84;1088477;54;19942;-79
2022/05/14 05:26:22;;;;;;;;;;;;;;;12.95;63.85;100376.09;1088429;54;19996;-79
2022/05/14 05:27:26;;;;;;;;;;;;;;;12.98;64.14;100374.97;1093186;46;19934;-81
2022/05/14 05:28:30;;;;;;;;;;;;;;;12.99;63.95;100382.00;1089509;46;19950;-80
2022/05/14 05:29:39;;;;;;;;;;;;;;;13.01;64.22;100373.81;1088649;54;19958;-79
2022/05/14 05:30:43;;;;;;;;;;;;;;;13.03;63.73;100382.56;1088632;54;19931;-80
2022/05/14 05:31:47;;;;;;;;;;;;;;;13.06;63.54;100382.22;1088328;54;19926;-80
2022/05/14 05:32:51;;;;;;;;;;;;;;;13.07;63.70;100383.91;1088539;54;19933;-80
2022/05/14 05:33:53;;;;;;;;;;;;;;;13.05;63.60;100383.22;1088551;54;19935;-80
2022/05/14 05:34:57;;;;;;;;;;;;;;;13.02;63.71;100379.00;1089985;39;20624;-80
2022/05/14 05:35:58;;;;;;;;;;;;;;;13.05;63.95;100380.53;1088518;54;19943;-80
2022/05/14 05:37:02;;;;;;;;;;;;;;;13.10;63.60;100383.63;1088521;54;19978;-79
2022/05/14 05:38:03;;;;;;;;;;;;;;;13.17;63.49;100376.63;1088494;54;19933;-80
2022/05/14 05:40:36;;;;;;;;;;;;;;;13.28;62.94;100380.91;1088379;54;19965;-80
2022/05/14 05:41:53;;;;;;;;;;;;;;;13.38;62.77;100375.47;1088527;54;20352;-80
2022/05/14 05:42:54;;;;;;;;;;;;;;;13.46;62.58;100377.44;1088353;54;20011;-80
2022/05/14 05:43:58;;;;;;;;;;;;;;;13.53;62.30;100373.13;1088497;54;19953;-79
2022/05/14 05:44:59;;;;;;;;;;;;;;;13.43;62.68;100373.19;1088436;54;19952;-79
2022/05/14 05:46:03;;;;;;;;;;;;;;;13.37;62.92;100377.31;1088437;54;19949;-81
2022/05/14 05:47:10;;;;;;;;;;;;;;;13.43;62.65;100383.09;1088500;54;20555;-80
2022/05/14 05:48:18;;;;;;;;;;;;;;;13.43;62.63;100383.94;1089264;46;19982;-80
2022/05/14 05:49:26;;;;;;;;;;;;;;;13.50;62.49;100382.34;1088331;54;19950;-80
2022/05/14 05:50:30;;;;;;;;;;;;;;;13.51;62.73;100391.22;1088501;54;19926;-79
2022/05/14 05:51:31;;;;;;;;;;;;;;;13.56;62.26;100386.22;1090298;46;19926;-80
2022/05/14 05:52:35;;;;;;;;;;;;;;;13.50;62.71;100394.91;1088442;54;19927;-80
2022/05/14 05:57:31;;;;;;;;;;;;;;;13.74;62.00;100380.81;1088371;54;19939;-81
2022/05/14 05:58:38;;;;;;;;;;;;;;;13.83;61.67;100384.41;1088516;54;19957;-80
2022/05/14 05:59:39;;;;;;;;;;;;;;;13.85;61.47;100383.25;1090028;46;19943;-79
2022/05/14 06:00:45;;;;;;;;;;;;;;;13.87;61.34;100385.75;1088591;54;19938;-79
2022/05/14 06:01:46;;;;;;;;;;;;;;;13.89;61.39;100379.22;1088372;54;19942;-79
2022/05/14 06:02:55;;;;;;;;;;;;;;;13.95;61.23;100379.59;1087908;54;21624;-79
2022/05/14 06:03:57;;;;;;;;;;;;;;;13.99;61.11;100380.97;1088455;54;20044;-80
2022/05/14 06:05:00;;;;;;;;;;;;;;;14.06;60.99;100384.72;1088419;54;19978;-83
2022/05/14 06:06:02;;;;;;;;;;;;;;;14.08;60.81;100379.19;1088297;54;19946;-77
2022/05/14 06:19:30;;;;;;;;;;;;;;;14.34;60.06;100381.84;1088365;54;19958;-77
2022/05/14 06:20:54;;;;;;;;;;;;;;;14.40;60.16;100386.56;1088448;54;19938;-82
2022/05/14 06:21:58;;;;;;;;;;;;;;;14.33;59.80;100380.97;1088109;54;19943;-79
2022/05/14 06:23:02;;;;;;;;;;;;;;;14.29;60.42;100379.63;1088381;54;19966;-78
2022/05/14 06:24:03;;;;;;;;;;;;;;;14.32;60.04;100381.97;1088401;54;19943;-78
2022/05/14 06:25:09;;;;;;;;;;;;;;;14.33;59.99;100377.47;1088383;54;19982;-77
2022/05/14 06:26:10;;;;;;;;;;;;;;;14.16;60.31;100381.91;1088386;54;19950;-79
2022/05/14 06:27:14;;;;;;;;;;;;;;;14.27;60.32;100386.16;1088493;54;19942;-78
2022/05/14 06:28:15;;;;;;;;;;;;;;;14.18;60.58;100378.03;1088434;54;20669;-78
2022/05/14 06:29:19;;;;;;;;;;;;;;;14.27;60.25;100380.78;1088395;54;19946;-78
2022/05/14 06:30:20;;;;;;;;;;;;;;;14.32;59.93;100378.47;1095087;39;20518;-78
2022/05/14 06:31:24;;;;;;;;;;;;;;;14.39;59.88;100379.50;1088407;54;19950;-78
2022/05/14 06:32:25;;;;;;;;;;;;;;;14.34;60.12;100379.97;1088373;54;19957;-78
2022/05/14 06:33:32;;;;;;;;;;;;;;;14.31;59.88;100377.59;1088432;54;19954;-79
2022/05/14 06:34:33;;;;;;;;;;;;;;;14.44;59.88;100385.25;1088437;54;19953;-78
2022/05/14 06:35:38;;;;;;;;;;;;;;;14.50;59.64;100375.66;1088492;54;19939;-80
2022/05/14 06:36:39;;;;;;;;;;;;;;;14.49;59.73;100388.28;1088482;54;19934;-81
2022/05/14 06:37:43;;;;;;;;;;;;;;;14.43;59.68;100378.19;1088200;54;19950;-79
2022/05/14 06:38:44;;;;;;;;;;;;;;;14.41;60.08;100382.88;1088064;54;19942;-79
2022/05/14 06:39:48;;;;;;;;;;;;;;;14.37;59.68;100386.03;1088682;46;20641;-78
2022/05/14 06:40:49;;;;;;;;;;;;;;;14.42;59.76;100384.56;1088413;54;19945;-79
2022/05/14 06:41:53;;;;;;;;;;;;;;;14.50;59.82;100387.28;1088431;54;19985;-81
2022/05/14 06:42:54;;;;;;;;;;;;;;;14.58;59.28;100385.63;1088400;54;19943;-79
2022/05/14 06:43:58;;;;;;;;;;;;;;;14.68;59.33;100382.84;1088436;54;19930;-79
2022/05/14 06:44:59;;;;;;;;;;;;;;;14.73;59.12;100383.16;1088400;54;19935;-79
2022/05/14 06:46:03;;;;;;;;;;;;;;;14.80;58.95;100379.66;1088445;54;19943;-78
2022/05/14 06:47:04;;;;;;;;;;;;;;;14.90;58.87;100384.06;1088449;54;19930;-78
2022/05/14 06:48:08;;;;;;;;;;;;;;;14.96;58.45;100386.09;1089265;46;19926;-78
2022/05/14 06:49:14;;;;;;;;;;;;;;;14.93;58.34;100387.25;1088419;54;19927;-81
2022/05/14 06:50:16;;;;;;;;;;;;;;;14.72;58.66;100376.97;1088466;54;19950;-79
2022/05/14 06:51:21;;;;;;;;;;;;;;;14.81;58.51;100381.34;1088600;54;20649;-79
2022/05/14 06:52:22;;;;;;;;;;;;;;;14.98;58.11;100382.22;1088536;54;19927;-80
2022/05/14 06:53:32;;;;;;;;;;;;;;;15.09;58.14;100373.00;1089768;46;19933;-81
2022/05/14 06:54:35;;;;;;;;;;;;;;;15.25;57.66;100376.69;1090787;46;19945;-79
2022/05/14 06:55:40;;;;;;;;;;;;;;;15.34;57.04;100380.25;1091345;46;20010;-79
2022/05/14 06:56:46;;;;;;;;;;;;;;;15.45;57.20;100379.91;1088485;54;19943;-78
2022/05/14 06:58:07;;;;;;;;;;;;;;;15.55;56.68;100379.75;1090208;46;19923;-80
2022/05/14 06:59:14;;;;;;;;;;;;;;;15.48;55.98;100384.13;1097048;46;19938;-80
2022/05/14 07:00:17;;;;;;;;;;;;;;;15.48;56.25;100384.13;1090522;46;19922;-79
2022/05/14 07:01:22;;;;;;;;;;;;;;;15.53;56.04;100387.16;1088844;39;20545;-78
2022/05/14 07:02:27;;;;;;;;;;;;;;;15.62;55.96;100380.75;1090234;46;20875;-79
2022/05/14 07:06:41;;;;;;;;;;;;;;;15.74;55.19;100387.47;1088338;54;19994;-79
2022/05/14 07:07:47;;;;;;;;;;;;;;;15.88;54.73;100385.09;1088383;54;19943;-80
2022/05/14 07:08:48;;;;;;;;;;;;;;;16.00;54.50;100383.75;1089624;46;19934;-79
2022/05/14 07:09:54;;;;;;;;;;;;;;;16.15;54.46;100385.75;1088329;54;19942;-78
2022/05/14 07:10:55;;;;;;;;;;;;;;;16.29;53.78;100390.41;1088104;54;19949;-81
2022/05/14 07:12:03;;;;;;;;;;;;;;;16.37;53.54;100389.53;1087948;54;19955;-80
2022/05/14 07:13:04;;;;;;;;;;;;;;;16.51;53.66;100380.69;1089385;46;19927;-79
2022/05/14 07:14:08;;;;;;;;;;;;;;;16.56;53.14;100382.03;1088046;54;19943;-78
2022/05/14 07:15:17;;;;;;;;;;;;;;;16.73;52.83;100383.63;1088982;46;19935;-79
2022/05/14 07:17:58;;;;;;;;;;;;;;;17.09;51.79;100383.09;1087627;54;20018;-79
2022/05/14 07:19:00;;;;;;;;;;;;;;;17.23;51.83;100384.19;1088106;54;19938;-80
2022/05/14 07:20:05;;;;;;;;;;;;;;;17.37;50.93;100381.75;1089644;47;19983;-78
2022/05/14 07:21:06;;;;;;;;;;;;;;;17.49;51.13;100385.66;1089894;46;19942;-79
2022/05/14 07:22:13;;;;;;;;;;;;;;;17.59;51.01;100383.56;1088397;54;19931;-79
2022/05/14 07:23:15;;;;;;;;;;;;;;;17.70;50.30;100382.28;1088319;54;19958;-79
2022/05/14 07:24:21;;;;;;;;;;;;;;;17.77;50.09;100376.97;1090644;46;19930;-79
2022/05/14 08:26:01;;;;;;;;;;;;;;;21.36;40.86;100357.84;1088336;54;19947;-80
2022/05/14 10:17:39;;;;;;;;;;;;;;;25.47;30.07;100288.00;1080158;54;20804;31
2022/05/14 10:20:22;;;;;;;;;;;;;;;25.92;29.66;100289.25;1076966;54;19946;31
2022/05/14 10:21:30;;;;;;;;;;;;;;;26.02;29.64;100281.28;1088520;54;19970;-84
2022/05/14 10:26:44;;;;;;;;;;;;;;;25.82;29.27;100285.22;1088512;54;19942;-83
2022/05/14 10:27:14;;;;;;;;;;;;;;;25.19;30.21;100292.22;1088275;54;19927;-79
2022/05/14 10:33:36;;;;;;;;;;;;;;;25.70;29.70;100290.69;1088365;54;19935;-82
2022/05/14 12:40:25;;;;;;;;;;;;;;;24.59;23.02;100192.84;1091124;46;20544;-80
2022/05/14 12:41:31;;;;;;;;;;;;;;;24.62;21.18;100189.63;1088555;54;19970;-80
2022/05/14 13:16:39;;;;;;;;;;;;;;;24.73;24.71;100158.81;1087968;54;19938;-82
2022/05/14 13:17:41;;;;;;;;;;;;;;;24.84;24.53;100159.88;1088523;54;19951;-83
2022/05/14 13:18:47;;;;;;;;;;;;;;;24.96;24.75;100157.13;1090181;39;20489;-84
2022/05/14 13:20:59;;;;;;;;;;;;;;;24.85;24.94;100149.75;1088277;54;19935;-85
2022/05/14 13:37:11;;;;;;;;;;;;;;;25.07;20.31;100137.16;1088639;54;19955;-82
2022/05/14 13:38:12;;;;;;;;;;;;;;;25.10;20.15;100140.50;1090467;46;19934;-83
2022/05/14 13:39:18;;;;;;;;;;;;;;;25.13;19.73;100135.38;1095693;46;19939;-82
2022/05/14 13:40:21;;;;;;;;;;;;;;;25.17;20.46;100124.78;1088587;54;19938;-82
2022/05/14 13:41:27;;;;;;;;;;;;;;;25.27;20.48;100132.41;1088546;54;19934;-86
2022/05/14 13:45:08;;;;;;;;;;;;;;;25.26;21.94;100131.56;1088600;54;19971;-83
2022/05/14 13:46:11;;;;;;;;;;;;;;;25.37;21.85;100125.22;1088578;54;19927;-83
2022/05/14 13:47:18;;;;;;;;;;;;;;;25.36;22.07;100123.56;1088761;54;19926;-83
2022/05/14 13:52:38;;;;;;;;;;;;;;;25.06;23.77;100124.56;1088568;54;19954;-86
2022/05/14 13:53:40;;;;;;;;;;;;;;;24.92;23.99;100118.50;1088432;54;19941;-84
2022/05/14 13:54:44;;;;;;;;;;;;;;;24.93;23.74;100124.81;1090141;46;19978;-84
2022/05/14 13:55:46;;;;;;;;;;;;;;;24.82;23.55;100117.44;1088594;54;19938;-83
2022/05/14 13:57:00;;;;;;;;;;;;;;;24.98;23.42;100122.19;1088760;54;19987;-83
2022/05/14 13:58:03;;;;;;;;;;;;;;;25.06;23.53;100110.88;1088681;54;19934;-83
2022/05/14 14:00:13;;;;;;;;;;;;;;;25.03;23.89;100113.28;1088692;54;19927;-84
2022/05/14 14:02:25;;;;;;;;;;;;;;;25.00;23.46;100111.00;1088940;54;19934;-84
2022/05/14 14:04:34;;;;;;;;;;;;;;;25.21;23.32;100101.38;1089009;54;19946;-83
2022/05/14 14:06:45;;;;;;;;;;;;;;;25.34;23.37;100097.53;1088421;54;19942;-86
2022/05/14 14:07:51;;;;;;;;;;;;;;;25.48;23.43;100092.66;1088409;54;19945;-84
2022/05/14 14:08:52;;;;;;;;;;;;;;;25.36;22.47;100101.69;1088523;54;19943;-85
2022/05/14 14:10:10;;;;;;;;;;;;;;;25.41;22.45;100100.16;1088485;54;19948;-85
2022/05/14 14:11:14;;;;;;;;;;;;;;;25.43;23.01;100098.00;1088497;54;19939;-84
2022/05/14 14:12:23;;;;;;;;;;;;;;;25.22;22.50;100094.81;1089296;46;19935;-84
2022/05/14 14:13:27;;;;;;;;;;;;;;;25.10;23.97;100094.00;1107968;46;19942;-85
2022/05/14 14:14:29;;;;;;;;;;;;;;;25.15;24.08;100091.38;1088495;54;19954;-86
2022/05/14 14:15:35;;;;;;;;;;;;;;;25.32;23.86;100100.47;1088531;54;19938;-84
2022/05/14 14:18:42;;;;;;;;;;;;;;;25.62;23.77;100088.53;1091876;46;19954;-86
2022/05/14 14:19:43;;;;;;;;;;;;;;;25.56;22.93;100088.66;1088949;46;19923;-84
2022/05/14 14:20:49;;;;;;;;;;;;;;;25.62;23.38;100088.53;1088520;54;19930;-83
2022/05/14 14:21:51;;;;;;;;;;;;;;;25.69;22.70;100089.22;1088596;54;19938;-84
2022/05/14 14:22:57;;;;;;;;;;;;;;;25.76;22.59;100085.53;1088454;54;19946;-83
2022/05/14 14:23:59;;;;;;;;;;;;;;;25.49;21.70;100095.13;1088249;54;19943;-84
2022/05/14 14:25:04;;;;;;;;;;;;;;;25.53;21.99;100081.78;1088641;54;19954;-84
2022/05/14 14:26:06;;;;;;;;;;;;;;;25.59;21.87;100078.09;1090035;46;19950;-85
2022/05/14 14:28:14;;;;;;;;;;;;;;;25.43;22.78;100089.78;1088912;54;19927;-84
2022/05/14 14:29:15;;;;;;;;;;;;;;;25.60;22.66;100084.38;1093014;46;19989;-85